Time;durP1;ratioP1;P1;durP2;ratioP2;P2;SDS_P1;SDS_P2;PMS_P1;PMS_P2;Temp;Humidity;BMP_temperature;BMP_pressure;BME280_temperature;BME280_humidity;BME280_pressure;Samples;Min_cycle;Max_cycle;Signal;HPM_P1;HPM_P2
2023/04/10 00:01:11;;;;;;;18.60;16.63;;;6.30;74.80;;;;;;6292782;28;20237;-83
2023/04/10 00:04:14;;;;;;;18.77;16.77;;;6.30;75.00;;;;;;6291246;28;20237;-81
2023/04/10 00:07:18;;;;;;;19.63;15.63;;;6.30;74.90;;;;;;6295663;28;20248;-86
2023/04/10 00:10:21;;;;;;;19.07;16.93;;;6.30;74.80;;;;;;6300193;28;20241;-81
2023/04/10 00:13:24;;;;;;;21.47;16.90;;;6.30;74.80;;;;;;6286011;28;20237;-85
2023/04/10 00:16:29;;;;;;;22.27;17.43;;;6.20;74.80;;;;;;6307944;28;20248;-81
2023/04/10 00:19:32;;;;;;;22.80;17.03;;;6.20;74.80;;;;;;6299340;28;20256;-84
2023/04/10 00:22:35;;;;;;;25.13;17.37;;;6.20;74.80;;;;;;6285993;28;20233;-87
2023/04/10 00:25:38;;;;;;;20.60;17.10;;;6.20;74.80;;;;;;6309944;28;20237;-83
2023/04/10 00:28:41;;;;;;;25.93;20.03;;;6.10;74.80;;;;;;6297395;28;20241;-81
2023/04/10 00:31:45;;;;;;;19.37;16.23;;;6.10;74.80;;;;;;6283049;28;20241;-85
2023/04/10 00:34:49;;;;;;;20.00;16.23;;;6.00;74.90;;;;;;6281756;28;20233;-83
2023/04/10 00:37:53;;;;;;;20.10;17.97;;;6.00;74.90;;;;;;6290714;28;20319;-83
2023/04/10 00:40:56;;;;;;;22.20;17.90;;;6.00;75.00;;;;;;6282890;28;20233;-83
2023/04/10 00:44:00;;;;;;;21.53;18.40;;;6.00;74.90;;;;;;6291252;28;20241;-85
2023/04/10 00:47:06;;;;;;;25.57;20.10;;;5.90;74.90;;;;;;6295918;28;20372;-83
2023/04/10 00:50:10;;;;;;;24.23;18.37;;;5.90;75.00;;;;;;6313050;28;20240;-84
2023/04/10 00:53:13;;;;;;;18.33;16.40;;;5.90;75.00;;;;;;6289330;28;20251;-82
2023/04/10 00:56:16;;;;;;;21.70;17.43;;;5.80;75.10;;;;;;6294028;28;20229;-85
2023/04/10 00:59:20;;;;;;;17.50;15.63;;;5.80;75.20;;;;;;6298610;28;20237;-84
2023/04/10 01:02:24;;;;;;;20.17;17.10;;;5.80;75.30;;;;;;6283815;28;20245;-85
2023/04/10 01:05:35;;;;;;;18.57;16.60;;;5.80;75.30;;;;;;6292464;28;20264;-85
2023/04/10 01:08:47;;;;;;;23.27;17.17;;;5.80;75.30;;;;;;6309268;28;20233;-83
2023/04/10 01:11:55;;;;;;;21.17;16.83;;;5.80;75.40;;;;;;6316146;28;20252;-79
2023/04/10 01:15:04;;;;;;;17.53;15.73;;;5.80;75.30;;;;;;6325698;27;20241;-79
2023/04/10 01:18:16;;;;;;;16.23;14.67;;;5.70;75.30;;;;;;6312501;28;20294;-79
2023/04/10 01:21:21;;;;;;;17.70;15.07;;;5.70;75.40;;;;;;6317756;28;20316;-85
2023/04/10 01:24:43;;;;;;;18.00;16.10;;;5.70;75.40;;;;;;6290920;28;20237;-82
2023/04/10 01:28:01;;;;;;;19.97;16.37;;;5.70;75.40;;;;;;6292083;28;20225;-83
2023/04/10 01:31:08;;;;;;;20.20;15.83;;;5.60;75.50;;;;;;6283916;28;20317;-82
2023/04/10 01:34:17;;;;;;;20.37;17.10;;;5.60;75.50;;;;;;6289192;28;20242;-82
2023/04/10 01:37:23;;;;;;;17.57;15.73;;;5.60;75.60;;;;;;6274450;28;20315;-83
2023/04/10 01:40:27;;;;;;;21.90;16.63;;;5.60;75.50;;;;;;6291698;28;20241;-83
2023/04/10 01:43:32;;;;;;;18.27;15.83;;;5.50;75.60;;;;;;6290595;28;20568;-86
2023/04/10 01:46:38;;;;;;;23.23;17.83;;;5.50;75.60;;;;;;6289548;28;20431;-85
2023/04/10 01:49:43;;;;;;;19.07;16.87;;;5.50;75.60;;;;;;6290626;28;20272;-85
2023/04/10 01:52:48;;;;;;;22.87;19.03;;;5.50;75.70;;;;;;6289782;28;20226;-81
2023/04/10 01:55:53;;;;;;;20.50;18.33;;;5.50;75.70;;;;;;6305905;27;20228;-86
2023/04/10 01:58:56;;;;;;;19.20;17.20;;;5.50;75.80;;;;;;6281813;28;20585;-86
2023/04/10 02:02:01;;;;;;;20.70;17.07;;;5.50;75.80;;;;;;6287507;28;20300;-84
2023/04/10 02:05:05;;;;;;;19.03;16.97;;;5.50;75.80;;;;;;6276898;28;20248;-83
2023/04/10 02:08:15;;;;;;;24.27;17.73;;;5.50;75.80;;;;;;6288080;28;20550;-83
2023/04/10 02:11:29;;;;;;;22.80;17.93;;;5.50;75.90;;;;;;6279046;28;20237;-83
2023/04/10 02:14:36;;;;;;;22.63;17.70;;;5.50;76.00;;;;;;6288395;28;20233;-84
2023/04/10 02:17:41;;;;;;;18.87;16.50;;;5.50;76.00;;;;;;6288374;28;20286;-83
2023/04/10 02:20:45;;;;;;;21.90;17.97;;;5.40;76.00;;;;;;6284971;28;20273;-84
2023/04/10 02:23:48;;;;;;;18.47;16.17;;;5.40;76.00;;;;;;6287706;28;20237;-84
2023/04/10 02:26:54;;;;;;;19.07;16.43;;;5.30;75.90;;;;;;6288870;28;20233;-85
2023/04/10 02:29:59;;;;;;;18.33;16.53;;;5.30;75.90;;;;;;6272757;28;20313;-86
2023/04/10 02:33:04;;;;;;;21.67;18.40;;;5.30;76.00;;;;;;6288501;28;20781;-81
2023/04/10 02:36:10;;;;;;;19.93;17.93;;;5.30;76.00;;;;;;6287885;28;20398;-82
2023/04/10 02:39:13;;;;;;;20.07;17.97;;;5.20;76.00;;;;;;6286363;28;20233;-86
2023/04/10 02:42:16;;;;;;;20.17;18.07;;;5.20;76.00;;;;;;6287717;28;20797;-84
2023/04/10 02:45:19;;;;;;;21.80;19.00;;;5.20;76.10;;;;;;6284783;28;20233;-86
2023/04/10 02:48:24;;;;;;;22.97;18.47;;;5.20;76.10;;;;;;6287673;28;20233;-86
2023/04/10 02:51:27;;;;;;;22.60;18.57;;;5.20;76.20;;;;;;6287369;28;20599;-81
2023/04/10 02:54:30;;;;;;;20.90;17.97;;;5.20;76.20;;;;;;6280212;28;20236;-84
2023/04/10 02:57:41;;;;;;;22.13;18.57;;;5.10;76.20;;;;;;6287345;28;20233;-80
2023/04/10 03:00:48;;;;;;;25.13;19.87;;;5.10;76.30;;;;;;6285759;28;20311;-85
2023/04/10 03:03:53;;;;;;;25.47;20.83;;;5.10;76.30;;;;;;6287036;28;20404;-83
2023/04/10 03:06:56;;;;;;;23.23;19.60;;;5.10;76.40;;;;;;6291295;28;20264;-83
2023/04/10 03:10:00;;;;;;;22.83;20.27;;;5.10;76.50;;;;;;6298648;28;20288;-85
2023/04/10 03:13:03;;;;;;;19.97;17.70;;;5.10;76.50;;;;;;6294961;28;20307;-83
2023/04/10 03:16:07;;;;;;;28.97;20.40;;;5.10;76.50;;;;;;6292924;28;20237;-84
2023/04/10 03:19:12;;;;;;;26.97;20.07;;;5.00;76.60;;;;;;6287705;28;20812;-85
2023/04/10 03:22:15;;;;;;;24.73;20.27;;;5.00;76.60;;;;;;6286851;28;20241;-83
2023/04/10 03:25:18;;;;;;;26.53;19.27;;;5.00;76.60;;;;;;6282027;28;20240;-83
2023/04/10 03:28:21;;;;;;;25.20;19.40;;;5.00;76.60;;;;;;6286878;28;20231;-86
2023/04/10 03:31:24;;;;;;;22.67;19.80;;;5.00;76.70;;;;;;6277885;28;20320;-81
2023/04/10 03:34:29;;;;;;;24.17;19.40;;;5.00;76.70;;;;;;6294850;28;20221;-84
2023/04/10 03:37:32;;;;;;;21.70;18.60;;;5.00;76.80;;;;;;6313939;28;20288;-79
2023/04/10 03:40:35;;;;;;;24.50;20.07;;;5.00;76.70;;;;;;6316691;28;20233;-80
2023/04/10 03:43:39;;;;;;;24.60;20.13;;;4.90;76.90;;;;;;6317727;28;20240;-79
2023/04/10 03:46:45;;;;;;;23.07;18.70;;;4.90;77.00;;;;;;6309647;28;20269;-81
2023/04/10 03:49:50;;;;;;;22.90;18.93;;;4.90;76.90;;;;;;6287229;28;20323;-81
2023/04/10 03:52:53;;;;;;;21.17;18.80;;;4.90;77.00;;;;;;6285226;28;20236;-81
2023/04/10 03:55:56;;;;;;;19.93;17.47;;;4.90;76.90;;;;;;6282762;28;20464;-78
2023/04/10 03:58:59;;;;;;;21.70;19.37;;;4.90;77.00;;;;;;6285776;28;20263;-81
2023/04/10 04:02:02;;;;;;;24.23;19.77;;;4.90;77.00;;;;;;6280569;28;20851;-81
2023/04/10 04:05:08;;;;;;;26.20;20.47;;;4.80;77.00;;;;;;6281134;28;20613;-81
2023/04/10 04:08:12;;;;;;;24.60;20.53;;;4.80;77.10;;;;;;6284339;28;20327;-82
2023/04/10 04:11:15;;;;;;;28.73;22.47;;;4.80;77.20;;;;;;6282469;28;20316;-78
2023/04/10 04:14:19;;;;;;;30.17;23.10;;;4.80;77.20;;;;;;6280042;28;20612;-81
2023/04/10 04:17:22;;;;;;;27.30;21.07;;;4.80;77.20;;;;;;6284339;28;20383;-82
2023/04/10 04:20:26;;;;;;;29.80;23.57;;;4.80;77.30;;;;;;6284949;28;20745;-80
2023/04/10 04:23:29;;;;;;;31.00;23.63;;;4.70;77.30;;;;;;6283000;28;20286;-80
2023/04/10 04:26:33;;;;;;;30.13;21.10;;;4.70;77.40;;;;;;6284892;28;20234;-82
2023/04/10 04:29:36;;;;;;;28.07;22.60;;;4.70;77.50;;;;;;6287114;28;20225;-82
2023/04/10 04:32:39;;;;;;;25.10;22.17;;;4.70;77.50;;;;;;6280883;28;20233;-82
2023/04/10 04:35:44;;;;;;;26.53;23.10;;;4.70;77.50;;;;;;6284838;28;20330;-80
2023/04/10 04:38:47;;;;;;;27.37;21.80;;;4.70;77.60;;;;;;6282774;28;20800;-82
2023/04/10 04:41:50;;;;;;;29.33;21.77;;;4.70;77.60;;;;;;6280166;28;20229;-81
2023/04/10 04:44:53;;;;;;;30.33;23.50;;;4.80;77.70;;;;;;6284428;28;20747;-78
2023/04/10 04:47:56;;;;;;;26.97;22.00;;;4.80;77.70;;;;;;6283653;28;20683;-81
2023/04/10 04:51:03;;;;;;;31.97;25.30;;;4.90;77.70;;;;;;6282732;28;20245;-79
2023/04/10 04:54:06;;;;;;;31.57;23.47;;;4.90;77.80;;;;;;6279421;28;20237;-80
2023/04/10 04:57:09;;;;;;;31.93;25.00;;;4.90;77.80;;;;;;6284907;28;20244;-81
2023/04/10 05:00:13;;;;;;;26.37;21.53;;;5.00;77.70;;;;;;6287180;28;20233;-80
2023/04/10 05:03:16;;;;;;;24.60;21.20;;;5.00;77.70;;;;;;6282068;28;20739;-79
2023/04/10 05:06:21;;;;;;;34.80;24.93;;;5.00;77.70;;;;;;6288588;28;20522;-81
2023/04/10 05:09:24;;;;;;;35.13;25.40;;;5.00;77.80;;;;;;6286576;28;22401;-81
2023/04/10 05:12:27;;;;;;;35.33;26.27;;;5.00;77.80;;;;;;6288437;28;20320;-77
2023/04/10 05:15:30;;;;;;;30.27;23.33;;;5.10;77.80;;;;;;6286465;28;20270;-81
2023/04/10 05:18:35;;;;;;;32.27;25.10;;;5.20;77.70;;;;;;6287027;28;20697;-83
2023/04/10 05:21:39;;;;;;;28.00;23.03;;;5.30;77.70;;;;;;6287706;28;20717;-79
2023/04/10 05:24:42;;;;;;;30.83;24.47;;;5.30;77.60;;;;;;6289389;28;20237;-81
2023/04/10 05:27:45;;;;;;;32.90;24.33;;;5.50;77.50;;;;;;6287278;28;20244;-78
2023/04/10 05:30:48;;;;;;;29.67;22.43;;;5.50;77.30;;;;;;6287760;28;20245;-80
2023/04/10 05:33:51;;;;;;;30.03;21.50;;;5.70;77.30;;;;;;6287809;28;20261;-80
2023/04/10 05:36:56;;;;;;;28.60;21.67;;;5.70;77.30;;;;;;6283555;28;20582;-82
2023/04/10 05:40:01;;;;;;;24.37;20.70;;;5.80;77.20;;;;;;6288856;28;20237;-80
2023/04/10 05:43:04;;;;;;;25.53;20.90;;;5.90;77.00;;;;;;6288208;28;20847;-80
2023/04/10 05:46:07;;;;;;;20.97;18.77;;;6.10;76.90;;;;;;6276413;28;20787;-80
2023/04/10 05:49:10;;;;;;;22.47;20.07;;;6.20;76.60;;;;;;6280831;28;20240;-79
2023/04/10 05:52:15;;;;;;;21.90;18.87;;;6.30;76.50;;;;;;6287000;28;20311;-81
2023/04/10 05:55:18;;;;;;;23.63;20.03;;;6.50;76.50;;;;;;6283706;28;20233;-80
2023/04/10 05:58:21;;;;;;;24.40;19.67;;;6.70;76.00;;;;;;6291183;28;20246;-80
2023/04/10 06:01:24;;;;;;;20.53;18.43;;;6.90;75.60;;;;;;6307527;28;20247;-81
2023/04/10 06:04:28;;;;;;;22.17;18.60;;;7.00;74.70;;;;;;6298205;28;20241;-79
2023/04/10 06:07:33;;;;;;;22.50;19.20;;;7.00;74.20;;;;;;6286359;28;20237;-77
2023/04/10 06:10:36;;;;;;;19.93;17.83;;;7.30;73.50;;;;;;6289607;28;20233;-81
2023/04/10 06:13:39;;;;;;;18.07;16.17;;;7.50;73.00;;;;;;6288017;28;20640;-80
2023/04/10 06:16:42;;;;;;;19.97;17.73;;;7.80;73.10;;;;;;6284827;28;20241;-80
2023/04/10 06:19:45;;;;;;;21.33;18.73;;;8.10;72.30;;;;;;6288807;28;20225;-81
2023/04/10 06:22:49;;;;;;;22.43;17.97;;;8.60;70.80;;;;;;6288324;28;20244;-80
2023/04/10 06:25:52;;;;;;;24.27;19.80;;;9.20;68.90;;;;;;6285792;28;20245;-80
2023/04/10 06:28:56;;;;;;;19.47;17.10;;;9.40;67.70;;;;;;6287668;28;20750;-82
2023/04/10 06:31:59;;;;;;;20.87;18.07;;;9.40;68.20;;;;;;6282264;28;20241;-81
2023/04/10 06:35:02;;;;;;;21.00;18.83;;;9.50;67.70;;;;;;6287801;28;20233;-80
2023/04/10 06:38:07;;;;;;;19.00;17.03;;;9.80;67.40;;;;;;6286815;28;20490;-81
2023/04/10 06:41:13;;;;;;;21.73;18.57;;;10.20;66.90;;;;;;6286797;28;20240;-79
2023/04/10 06:44:16;;;;;;;23.50;19.17;;;10.40;65.90;;;;;;6285222;28;20229;-81
2023/04/10 06:47:19;;;;;;;21.93;19.67;;;10.40;65.30;;;;;;6287095;28;20640;-84
2023/04/10 06:50:23;;;;;;;26.63;20.03;;;10.20;65.40;;;;;;6286661;28;20256;-82
2023/04/10 06:53:27;;;;;;;21.87;19.60;;;10.10;65.70;;;;;;6286805;28;20405;-80
2023/04/10 06:56:30;;;;;;;24.50;21.77;;;10.00;66.00;;;;;;6283299;28;20328;-81
2023/04/10 06:59:34;;;;;;;23.37;21.00;;;9.70;67.00;;;;;;6286189;28;20720;-80
2023/04/10 07:02:37;;;;;;;23.10;20.73;;;9.80;67.30;;;;;;6275676;28;20367;-80
2023/04/10 07:05:40;;;;;;;30.77;24.93;;;10.00;67.00;;;;;;6278572;28;20375;-81
2023/04/10 07:08:45;;;;;;;37.93;29.40;;;10.00;66.80;;;;;;6286121;28;20445;-80
2023/04/10 07:11:48;;;;;;;34.17;28.30;;;9.70;67.80;;;;;;6283556;28;20238;-80
2023/04/10 07:14:51;;;;;;;41.87;31.10;;;9.50;68.20;;;;;;6286098;28;20237;-80
2023/04/10 07:17:55;;;;;;;35.47;30.57;;;9.40;68.70;;;;;;6294374;28;20238;-79
2023/04/10 07:20:58;;;;;;;35.03;29.37;;;9.60;68.60;;;;;;6284344;28;20255;-80
2023/04/10 07:24:03;;;;;;;34.70;28.77;;;9.60;68.60;;;;;;6274673;28;20242;-77
2023/04/10 07:27:06;;;;;;;33.63;29.33;;;9.80;68.70;;;;;;6285666;28;20244;-82
2023/04/10 07:30:10;;;;;;;35.07;28.90;;;9.90;68.00;;;;;;6278390;28;20245;-80
2023/04/10 07:33:15;;;;;;;35.97;27.90;;;10.00;68.20;;;;;;6278725;28;20685;-81
2023/04/10 07:36:19;;;;;;;38.33;29.60;;;10.00;67.90;;;;;;6286041;28;20233;-80
2023/04/10 07:39:23;;;;;;;34.53;29.63;;;10.00;68.10;;;;;;6284485;28;20639;-80
2023/04/10 07:42:26;;;;;;;36.70;31.70;;;10.10;68.00;;;;;;6285927;28;20864;-79
2023/04/10 07:45:29;;;;;;;37.00;29.87;;;10.10;68.20;;;;;;6285732;28;20724;-80
2023/04/10 07:48:33;;;;;;;36.27;30.23;;;10.20;68.00;;;;;;6279639;28;20625;-81
2023/04/10 07:51:36;;;;;;;38.20;30.57;;;10.50;67.30;;;;;;6285910;28;20731;-83
2023/04/10 07:54:40;;;;;;;38.10;30.50;;;10.60;67.20;;;;;;6289917;28;20221;-81
2023/04/10 07:57:43;;;;;;;34.03;29.60;;;10.80;66.50;;;;;;6281612;28;20709;-79
2023/04/10 08:00:46;;;;;;;38.70;30.80;;;11.00;66.00;;;;;;6280142;28;20368;-84
2023/04/10 08:03:50;;;;;;;36.23;30.60;;;11.10;66.00;;;;;;6283189;28;20616;-79
2023/04/10 08:06:54;;;;;;;33.83;27.43;;;11.30;65.60;;;;;;6285540;28;20253;-82
2023/04/10 08:10:01;;;;;;;34.83;29.90;;;11.50;65.30;;;;;;6279658;28;20312;-80
2023/04/10 08:13:04;;;;;;;38.73;33.10;;;11.70;65.00;;;;;;6289616;28;20229;-77
2023/04/10 08:16:08;;;;;;;33.60;29.77;;;11.70;64.90;;;;;;6310388;28;20264;-76
2023/04/10 08:19:11;;;;;;;32.67;29.03;;;11.90;64.50;;;;;;6309856;28;20233;-78
2023/04/10 08:22:14;;;;;;;37.77;31.87;;;11.90;64.40;;;;;;6314059;28;20284;-77
2023/04/10 08:25:19;;;;;;;39.77;31.00;;;12.10;64.00;;;;;;6300476;28;20272;-77
2023/04/10 08:28:22;;;;;;;37.87;29.17;;;12.20;63.70;;;;;;6307424;28;20268;-80
2023/04/10 08:31:26;;;;;;;31.50;26.97;;;12.10;63.70;;;;;;6303769;28;20241;-80
2023/04/10 08:34:30;;;;;;;35.80;28.93;;;12.20;64.00;;;;;;6290860;28;20263;-82
2023/04/10 08:37:33;;;;;;;37.60;28.93;;;12.40;63.70;;;;;;6298259;28;20724;-81
2023/04/10 08:40:38;;;;;;;37.53;30.60;;;12.40;63.50;;;;;;6291005;28;20640;-80
2023/04/10 08:43:42;;;;;;;36.03;29.37;;;12.50;63.30;;;;;;6287102;28;20755;-79
2023/04/10 08:46:45;;;;;;;33.23;28.03;;;12.70;62.60;;;;;;6289495;28;20713;-78
2023/04/10 08:49:56;;;;;;;31.33;26.83;;;12.80;62.60;;;;;;6285978;28;20236;-79
2023/04/10 08:53:03;;;;;;;35.40;28.03;;;12.70;62.50;;;;;;6295701;28;20221;-78
2023/04/10 08:56:11;;;;;;;35.40;28.47;;;12.90;61.30;;;;;;6321723;28;20243;-77
2023/04/10 08:59:15;;;;;;;30.77;25.47;;;13.00;61.40;;;;;;6317956;28;20237;-77
2023/04/10 09:02:18;;;;;;;33.03;26.83;;;13.10;61.50;;;;;;6315279;28;20251;-76
2023/04/10 09:05:23;;;;;;;31.20;25.33;;;13.20;61.90;;;;;;6320553;28;20233;-77
2023/04/10 09:08:28;;;;;;;27.97;22.60;;;13.30;60.70;;;;;;6327432;28;20232;-77
2023/04/10 09:11:59;;;;;;;25.73;22.03;;;13.20;60.10;;;;;;6320705;28;20257;-79
2023/04/10 09:15:04;;;;;;;24.00;19.83;;;13.30;60.30;;;;;;6312650;28;20248;-80
2023/04/10 09:18:07;;;;;;;21.90;17.77;;;13.50;59.50;;;;;;6292986;28;20732;-78
2023/04/10 09:21:11;;;;;;;22.20;19.43;;;13.50;57.90;;;;;;6294712;28;20260;-79
2023/04/10 09:24:15;;;;;;;22.40;19.50;;;13.60;58.60;;;;;;6286894;28;20240;-82
2023/04/10 09:27:33;;;;;;;22.70;19.67;;;13.70;58.30;;;;;;6292669;28;20233;-80
2023/04/10 09:30:38;;;;;;;22.27;19.00;;;13.90;57.20;;;;;;6297250;28;20252;-79
2023/04/10 09:33:42;;;;;;;19.23;17.33;;;13.90;57.80;;;;;;6302484;28;20290;-80
2023/04/10 09:36:54;;;;;;;22.50;19.60;;;13.90;58.10;;;;;;6296150;28;20247;-80
2023/04/10 09:39:57;;;;;;;25.43;19.53;;;14.00;58.50;;;;;;6282788;28;20225;-79
2023/04/10 09:43:17;;;;;;;23.30;17.87;;;14.10;58.00;;;;;;6297022;28;20344;-76
2023/04/10 09:46:28;;;;;;;24.73;20.17;;;14.20;57.60;;;;;;6311830;28;20388;-79
2023/04/10 09:49:45;;;;;;;21.07;18.77;;;14.10;58.10;;;;;;6309169;28;20225;-78
2023/04/10 09:52:57;;;;;;;20.33;17.00;;;14.10;58.60;;;;;;6305283;28;20216;-77
2023/04/10 09:56:01;;;;;;;23.90;19.73;;;14.20;58.50;;;;;;6317233;28;20241;-78
2023/04/10 09:59:07;;;;;;;22.27;18.63;;;14.30;58.70;;;;;;6309922;28;20213;-76
2023/04/10 10:02:13;;;;;;;25.07;19.23;;;14.00;59.30;;;;;;6318999;28;20355;-78
2023/04/10 10:05:16;;;;;;;19.67;17.53;;;13.90;59.60;;;;;;6286813;28;20230;-79
2023/04/10 10:08:20;;;;;;;21.60;17.60;;;14.20;58.90;;;;;;6306758;28;20534;-79
2023/04/10 10:11:24;;;;;;;21.47;17.23;;;14.40;58.10;;;;;;6303331;28;20259;-80
2023/04/10 10:14:30;;;;;;;21.87;17.93;;;14.60;58.40;;;;;;6298205;28;20281;-79
2023/04/10 10:17:41;;;;;;;24.80;19.50;;;14.70;57.70;;;;;;6301242;28;20230;-78
2023/04/10 10:20:46;;;;;;;23.30;18.60;;;14.70;58.20;;;;;;6302826;28;20293;-80
2023/04/10 10:23:52;;;;;;;21.57;18.90;;;14.90;58.10;;;;;;6291549;28;20225;-79
2023/04/10 10:26:57;;;;;;;19.33;16.57;;;15.00;57.20;;;;;;6290745;28;20243;-79
2023/04/10 10:30:03;;;;;;;21.20;17.57;;;15.00;57.70;;;;;;6289517;28;20736;-79
2023/04/10 10:33:25;;;;;;;19.13;15.30;;;15.20;57.40;;;;;;6302425;28;20253;-82
2023/04/10 10:36:28;;;;;;;16.90;14.67;;;15.30;56.60;;;;;;6286648;28;20249;-80
2023/04/10 10:39:42;;;;;;;16.93;14.97;;;15.40;55.90;;;;;;6291153;28;20246;-81
2023/04/10 10:42:50;;;;;;;21.53;14.97;;;15.60;55.70;;;;;;6287532;28;20236;-80
2023/04/10 10:46:02;;;;;;;13.77;12.37;;;15.40;55.70;;;;;;6292523;28;20779;-79
2023/04/10 10:49:05;;;;;;;16.53;13.60;;;15.40;55.00;;;;;;6288925;28;20308;-78
2023/04/10 10:52:08;;;;;;;14.83;13.43;;;15.30;55.60;;;;;;6294610;28;20256;-82
2023/04/10 10:55:36;;;;;;;14.30;12.93;;;15.40;55.80;;;;;;6299078;28;20324;-79
2023/04/10 10:58:47;;;;;;;14.97;12.10;;;15.40;55.80;;;;;;6304050;28;20298;-78
2023/04/10 11:02:15;;;;;;;11.03;9.93;;;15.60;54.70;;;;;;6286261;28;20241;-81
2023/04/10 11:05:54;;;;;;;13.83;10.30;;;16.00;54.30;;;;;;6282051;28;20218;-81
2023/04/10 11:08:58;;;;;;;10.93;9.83;;;15.90;53.60;;;;;;6282315;28;20237;-81
2023/04/10 11:12:01;;;;;;;14.40;10.13;;;15.80;53.40;;;;;;6285500;28;20437;-80
2023/04/10 11:15:06;;;;;;;10.80;9.83;;;15.70;54.10;;;;;;6286888;28;20252;-79
2023/04/10 11:18:11;;;;;;;9.83;8.83;;;15.80;53.50;;;;;;6286163;28;20701;-81
2023/04/10 11:21:15;;;;;;;10.03;9.17;;;16.00;53.00;;;;;;6284733;28;20318;-82
2023/04/10 11:24:18;;;;;;;10.70;9.80;;;16.00;53.40;;;;;;6282516;28;20761;-80
2023/04/10 11:27:43;;;;;;;12.17;10.97;;;16.00;53.50;;;;;;6284722;28;20237;-81
2023/04/10 11:30:47;;;;;;;11.83;10.73;;;16.00;53.80;;;;;;6281518;28;20863;-81
2023/04/10 11:34:01;;;;;;;13.03;11.10;;;16.00;53.20;;;;;;6286746;28;20325;-79
2023/04/10 11:37:05;;;;;;;11.77;10.73;;;16.20;53.80;;;;;;6286610;28;20321;-80
2023/04/10 11:40:10;;;;;;;12.20;11.00;;;16.10;53.80;;;;;;6280305;28;20248;-79
2023/04/10 11:43:14;;;;;;;12.87;11.67;;;16.00;54.20;;;;;;6287811;28;20395;-79
2023/04/10 11:46:18;;;;;;;11.60;10.50;;;16.00;54.20;;;;;;6288069;28;20235;-80
2023/04/10 11:49:24;;;;;;;12.47;11.17;;;16.20;54.30;;;;;;6282975;28;20245;-81
2023/04/10 11:52:27;;;;;;;12.73;11.60;;;16.40;53.10;;;;;;6294819;28;20238;-81
2023/04/10 11:55:39;;;;;;;13.27;11.97;;;16.40;53.30;;;;;;6277655;28;20228;-80
2023/04/10 11:58:42;;;;;;;10.77;9.93;;;16.40;53.20;;;;;;6284196;28;20479;-79
2023/04/10 12:01:46;;;;;;;11.70;10.70;;;16.60;52.90;;;;;;6283906;28;20740;-80
2023/04/10 12:04:58;;;;;;;12.07;10.87;;;16.80;52.50;;;;;;6285396;28;20244;-79
2023/04/10 12:08:01;;;;;;;10.37;9.40;;;17.00;51.80;;;;;;6273781;28;20237;-79
2023/04/10 12:11:05;;;;;;;9.53;8.83;;;16.90;51.60;;;;;;6281234;28;20238;-78
2023/04/10 12:14:08;;;;;;;11.40;10.03;;;16.80;51.40;;;;;;6284226;28;20662;-80
2023/04/10 12:17:12;;;;;;;8.47;7.77;;;16.90;51.80;;;;;;6285423;28;20301;-80
2023/04/10 12:20:17;;;;;;;10.97;9.00;;;17.00;51.30;;;;;;6278920;28;20318;-80
2023/04/10 12:23:20;;;;;;;9.70;8.80;;;16.70;50.90;;;;;;6285733;28;20764;-81
2023/04/10 12:26:23;;;;;;;8.03;7.37;;;16.40;51.70;;;;;;6286333;28;20239;-80
2023/04/10 12:29:27;;;;;;;7.97;7.27;;;16.70;50.50;;;;;;6283396;28;20241;-79
2023/04/10 12:32:33;;;;;;;10.00;9.10;;;16.70;50.30;;;;;;6278385;28;20243;-77
2023/04/10 12:35:42;;;;;;;8.20;7.70;;;16.90;50.80;;;;;;6287751;28;20241;-80
2023/04/10 12:38:46;;;;;;;9.07;8.30;;;16.70;50.40;;;;;;6285765;28;20237;-77
2023/04/10 12:41:49;;;;;;;8.57;7.80;;;16.70;50.40;;;;;;6285477;28;20240;-78
2023/04/10 12:44:54;;;;;;;8.10;7.50;;;16.90;49.80;;;;;;6277827;28;20221;-78
2023/04/10 12:47:57;;;;;;;9.03;8.33;;;17.00;49.50;;;;;;6281867;28;20225;-80
2023/04/10 12:51:02;;;;;;;9.80;8.63;;;17.20;49.80;;;;;;6286160;28;20233;-78
2023/04/10 12:54:06;;;;;;;8.70;7.77;;;17.20;49.20;;;;;;6287625;28;20229;-80
2023/04/10 12:57:09;;;;;;;8.60;7.90;;;17.10;49.70;;;;;;6283918;28;20229;-79
2023/04/10 13:00:15;;;;;;;9.20;8.50;;;17.00;49.50;;;;;;6287346;28;20248;-79
2023/04/10 13:03:18;;;;;;;8.80;8.13;;;16.80;49.00;;;;;;6280925;28;20230;-77
2023/04/10 13:06:23;;;;;;;9.93;9.13;;;16.70;49.50;;;;;;6287220;28;20247;-78
2023/04/10 13:09:33;;;;;;;10.40;8.60;;;16.60;49.80;;;;;;6289902;28;20245;-78
2023/04/10 13:12:37;;;;;;;8.23;7.63;;;16.70;49.80;;;;;;6286827;28;20682;-80
2023/04/10 13:15:40;;;;;;;11.50;7.80;;;16.90;49.30;;;;;;6310791;28;20328;-79
2023/04/10 13:18:43;;;;;;;8.93;8.13;;;17.00;49.30;;;;;;6299206;28;20616;-79
2023/04/10 13:21:49;;;;;;;9.50;8.80;;;17.10;50.20;;;;;;6281903;28;20241;-79
2023/04/10 13:24:52;;;;;;;9.73;9.00;;;17.10;49.90;;;;;;6288587;28;20437;-80
2023/04/10 13:27:55;;;;;;;9.10;8.30;;;17.00;50.50;;;;;;6290284;28;20229;-79
2023/04/10 13:30:58;;;;;;;9.17;8.33;;;17.00;50.50;;;;;;6288784;28;20240;-79
2023/04/10 13:34:01;;;;;;;9.07;8.33;;;17.00;50.40;;;;;;6291042;28;20264;-81
2023/04/10 13:37:06;;;;;;;9.13;8.23;;;17.10;50.70;;;;;;6289779;28;20230;-80
2023/04/10 13:40:10;;;;;;;8.87;8.20;;;17.00;50.70;;;;;;6284114;28;20766;-79
2023/04/10 13:43:13;;;;;;;9.70;8.90;;;17.00;50.70;;;;;;6287086;28;20232;-80
2023/04/10 13:46:17;;;;;;;9.23;8.53;;;16.90;51.00;;;;;;6287052;28;20240;-82
2023/04/10 13:49:20;;;;;;;10.90;9.90;;;17.00;51.00;;;;;;6288854;28;20245;-80
2023/04/10 13:52:25;;;;;;;9.57;8.13;;;16.90;51.10;;;;;;6288855;28;20252;-80
2023/04/10 13:55:28;;;;;;;8.43;7.80;;;16.70;51.30;;;;;;6289536;28;20237;-79
2023/04/10 13:58:33;;;;;;;8.37;7.67;;;16.70;51.20;;;;;;6294284;28;20229;-81
2023/04/10 14:01:36;;;;;;;9.37;8.47;;;16.70;51.40;;;;;;6286209;28;20363;-77
2023/04/10 14:04:39;;;;;;;8.83;7.87;;;16.70;51.30;;;;;;6287477;28;20234;-80
2023/04/10 14:07:44;;;;;;;8.77;8.17;;;16.80;51.10;;;;;;6291114;28;20268;-80
2023/04/10 14:10:49;;;;;;;9.20;8.30;;;17.00;50.80;;;;;;6289670;28;20260;-81
2023/04/10 14:13:52;;;;;;;8.10;7.50;;;17.20;50.50;;;;;;6286415;28;20783;-78
2023/04/10 14:16:55;;;;;;;8.43;7.70;;;17.50;50.80;;;;;;6288485;28;20244;-81
2023/04/10 14:19:58;;;;;;;8.77;7.70;;;17.60;50.10;;;;;;6285865;28;20633;-80
2023/04/10 14:23:03;;;;;;;8.57;7.83;;;17.50;50.00;;;;;;6288941;28;20230;-80
2023/04/10 14:26:06;;;;;;;9.20;8.20;;;17.50;48.80;;;;;;6280427;28;20316;-78
2023/04/10 14:29:10;;;;;;;9.97;9.03;;;17.40;49.10;;;;;;6286803;28;20237;-78
2023/04/10 14:32:13;;;;;;;11.23;9.40;;;17.50;50.00;;;;;;6287526;28;20233;-77
2023/04/10 14:35:16;;;;;;;9.40;8.60;;;17.50;50.00;;;;;;6284851;28;20240;-78
2023/04/10 14:38:20;;;;;;;12.07;9.30;;;17.50;50.40;;;;;;6290695;28;20236;-80
2023/04/10 14:41:24;;;;;;;9.77;8.80;;;17.40;50.00;;;;;;6289032;28;20252;-83
2023/04/10 14:44:27;;;;;;;9.73;8.70;;;17.60;50.10;;;;;;6283562;28;20293;-80
2023/04/10 14:47:30;;;;;;;10.23;9.10;;;17.80;49.50;;;;;;6283307;28;20247;-82
2023/04/10 14:50:33;;;;;;;9.93;9.23;;;17.60;49.90;;;;;;6292255;28;20252;-79
2023/04/10 14:53:37;;;;;;;10.10;9.13;;;17.80;48.40;;;;;;6288623;28;20736;-81
2023/04/10 14:56:40;;;;;;;10.13;9.23;;;17.90;48.50;;;;;;6289778;28;20241;-81
2023/04/10 14:59:44;;;;;;;10.23;9.43;;;17.80;48.10;;;;;;6286980;28;20236;-79
2023/04/10 15:02:47;;;;;;;10.13;9.20;;;17.80;47.90;;;;;;6289031;28;20248;-79
2023/04/10 15:05:58;;;;;;;9.63;8.83;;;17.50;48.80;;;;;;6280645;28;20233;-81
2023/04/10 15:09:03;;;;;;;10.67;9.67;;;17.20;48.80;;;;;;6286293;28;20245;-78
2023/04/10 15:12:07;;;;;;;10.17;9.37;;;17.20;49.20;;;;;;6283380;28;20233;-80
2023/04/10 15:15:11;;;;;;;10.30;9.50;;;17.30;49.60;;;;;;6287227;28;20701;-78
2023/04/10 15:18:14;;;;;;;11.23;10.33;;;17.40;49.50;;;;;;6283053;28;20237;-76
2023/04/10 15:21:17;;;;;;;11.00;10.10;;;17.40;49.10;;;;;;6290907;28;20626;-76
2023/04/10 15:24:22;;;;;;;11.03;10.03;;;17.20;49.30;;;;;;6308544;28;20282;-78
2023/04/10 15:27:25;;;;;;;10.63;9.83;;;17.20;49.20;;;;;;6306627;28;20231;-77
2023/04/10 15:30:28;;;;;;;11.93;10.63;;;17.20;49.10;;;;;;6307527;28;20241;-79
2023/04/10 15:33:31;;;;;;;12.57;11.33;;;17.00;49.30;;;;;;6291732;28;20237;-80
2023/04/10 15:36:34;;;;;;;10.67;9.87;;;16.80;49.40;;;;;;6283430;28;20237;-78
2023/04/10 15:39:39;;;;;;;11.87;10.67;;;16.80;49.70;;;;;;6300013;28;20229;-79
2023/04/10 15:42:43;;;;;;;11.03;10.03;;;16.50;50.00;;;;;;6285104;28;20248;-81
2023/04/10 15:45:46;;;;;;;11.63;10.73;;;16.50;49.70;;;;;;6280437;28;20320;-79
2023/04/10 15:48:49;;;;;;;11.03;10.07;;;16.40;49.30;;;;;;6286378;28;20659;-79